createdAt,value
2022-12-23T00:01:02.580Z,97814.44
2022-12-23T00:03:34.921Z,97817.02
2022-12-23T00:06:13.105Z,97814.92
2022-12-23T00:08:46.967Z,97816.83
2022-12-23T00:11:21.076Z,97817.38
2022-12-23T00:14:16.284Z,97820.36
2022-12-23T00:16:53.298Z,97826.44
2022-12-23T00:19:25.317Z,97833.98
2022-12-23T00:21:57.125Z,97819.99
2022-12-23T00:24:29.101Z,97827.58
2022-12-23T00:27:00.953Z,97827.57
2022-12-23T00:29:32.907Z,97821.97
2022-12-23T00:32:04.865Z,97824.73
2022-12-23T00:34:36.566Z,97825.37
2022-12-23T00:37:08.313Z,97832.00
2022-12-23T00:40:02.716Z,97832.11
2022-12-23T00:42:54.555Z,97836.83
2022-12-23T00:45:27.009Z,97835.57
2022-12-23T00:48:16.417Z,97842.59
2022-12-23T00:50:48.106Z,97847.83
2022-12-23T00:53:21.621Z,97848.70
2022-12-23T00:55:53.835Z,97847.65
2022-12-23T00:58:26.496Z,97851.58
2022-12-23T01:01:15.759Z,97850.34
2022-12-23T01:04:05.205Z,97854.55
2022-12-23T01:06:37.152Z,97848.66
2022-12-23T01:09:08.895Z,97842.63
2022-12-23T01:11:40.802Z,97850.84
2022-12-23T01:14:13.420Z,97838.06
2022-12-23T01:16:45.863Z,97830.59
2022-12-23T01:19:17.783Z,97835.86
2022-12-23T01:21:49.512Z,97841.45
2022-12-23T01:24:21.402Z,97841.14
2022-12-23T01:26:53.058Z,97837.23
2022-12-23T01:29:25.059Z,97840.25
2022-12-23T01:31:57.052Z,97841.05
2022-12-23T01:34:36.035Z,97840.84
2022-12-23T01:37:08.801Z,97841.81
2022-12-23T01:39:40.520Z,97837.88
2022-12-23T01:42:33.681Z,97847.05
2022-12-23T01:45:14.557Z,97851.39
2022-12-23T01:47:50.684Z,97845.77
2022-12-23T01:50:26.972Z,97840.31
2022-12-23T01:53:08.219Z,97840.07
2022-12-23T01:55:46.240Z,97843.21
2022-12-23T01:58:21.937Z,97842.59
2022-12-23T02:01:12.620Z,97850.16
2022-12-23T02:03:45.540Z,97852.59
2022-12-23T02:06:40.215Z,97851.19
2022-12-23T02:09:19.682Z,97857.44
2022-12-23T02:12:16.131Z,97856.85
2022-12-23T02:15:28.081Z,97863.73
2022-12-23T02:18:14.603Z,97871.52
2022-12-23T02:21:10.849Z,97871.35
2022-12-23T02:24:20.610Z,97880.73
2022-12-23T02:27:12.983Z,97880.09
2022-12-23T02:30:08.337Z,97876.86
2022-12-23T02:32:54.048Z,97873.77
2022-12-23T02:35:33.650Z,97873.61
2022-12-23T02:38:12.021Z,97872.59
2022-12-23T02:40:53.757Z,97874.05
2022-12-23T02:43:32.496Z,97875.34
2022-12-23T02:46:15.093Z,97880.41
2022-12-23T02:48:52.907Z,97875.45
2022-12-23T02:51:28.765Z,97870.39
2022-12-23T02:54:04.942Z,97868.39
2022-12-23T02:56:41.063Z,97869.25
2022-12-23T02:59:18.058Z,97869.20
2022-12-23T03:01:50.822Z,97869.09
2022-12-23T03:04:23.014Z,97868.38
2022-12-23T03:07:02.831Z,97870.11
2022-12-23T03:09:49.148Z,97867.52
2022-12-23T03:12:30.666Z,97870.80
2022-12-23T03:15:34.757Z,97875.61
2022-12-23T03:18:13.239Z,97872.92
2022-12-23T03:20:53.503Z,97875.02
2022-12-23T03:23:32.213Z,97867.73
2022-12-23T03:26:09.288Z,97868.98
2022-12-23T03:28:48.216Z,97867.80
2022-12-23T03:31:25.303Z,97861.97
2022-12-23T03:34:05.013Z,97859.33
2022-12-23T03:36:42.902Z,97857.70
2022-12-23T03:39:21.460Z,97854.53
2022-12-23T03:41:57.579Z,97857.88
2022-12-23T03:44:33.844Z,97856.04
2022-12-23T03:47:10.555Z,97863.44
2022-12-23T03:49:45.550Z,97865.75
2022-12-23T03:52:22.456Z,97860.14
2022-12-23T03:54:58.444Z,97859.06
2022-12-23T03:57:39.346Z,97868.11
2022-12-23T04:00:14.546Z,97866.40
2022-12-23T04:02:55.203Z,97865.65
2022-12-23T04:05:33.181Z,97866.98
2022-12-23T04:08:13.051Z,97864.83
2022-12-23T04:10:45.003Z,97858.95
2022-12-23T04:13:16.743Z,97853.89
2022-12-23T04:15:48.597Z,97851.52
2022-12-23T04:18:20.651Z,97846.34
2022-12-23T04:20:52.594Z,97842.77
2022-12-23T04:23:24.444Z,97837.48
2022-12-23T04:25:56.246Z,97836.80
2022-12-23T04:28:27.996Z,97831.45
2022-12-23T04:30:59.721Z,97826.00
2022-12-23T04:33:31.974Z,97824.00
2022-12-23T04:36:03.643Z,97813.55
2022-12-23T04:38:35.404Z,97811.66
2022-12-23T04:41:07.442Z,97806.65
2022-12-23T04:43:39.100Z,97811.67
2022-12-23T04:46:10.911Z,97810.59
2022-12-23T04:48:42.682Z,97814.58
2022-12-23T04:51:14.365Z,97819.23
2022-12-23T04:53:46.177Z,97819.60
2022-12-23T04:56:18.322Z,97818.30
2022-12-23T04:58:52.302Z,97816.58
2022-12-23T05:01:24.239Z,97814.70
2022-12-23T05:03:56.005Z,97813.56
2022-12-23T05:06:27.769Z,97815.56
2022-12-23T05:08:59.462Z,97818.69
2022-12-23T05:11:31.255Z,97821.15
2022-12-23T05:14:02.980Z,97827.41
2022-12-23T05:16:35.125Z,97833.02
2022-12-23T05:19:07.215Z,97828.32
2022-12-23T05:21:38.991Z,97821.26
2022-12-23T05:24:11.219Z,97823.48
2022-12-23T05:26:47.604Z,97818.46
2022-12-23T05:29:19.895Z,97825.58
2022-12-23T05:31:51.779Z,97829.56
2022-12-23T05:34:24.601Z,97830.97
2022-12-23T05:36:56.515Z,97829.95
2022-12-23T05:39:28.376Z,97825.10
2022-12-23T05:42:00.134Z,97826.48
2022-12-23T05:44:32.772Z,97828.05
2022-12-23T05:47:04.994Z,97825.67
2022-12-23T05:49:36.869Z,97827.40
2022-12-23T05:52:08.828Z,97828.41
2022-12-23T05:54:40.624Z,97825.06
2022-12-23T05:57:12.997Z,97820.16
2022-12-23T05:59:45.444Z,97818.48
2022-12-23T06:02:17.506Z,97819.77
2022-12-23T06:04:49.813Z,97813.04
2022-12-23T06:07:21.660Z,97811.80
2022-12-23T06:09:53.457Z,97818.50
2022-12-23T06:12:26.629Z,97817.59
2022-12-23T06:14:58.395Z,97812.52
2022-12-23T06:17:30.202Z,97809.71
2022-12-23T06:20:01.956Z,97807.13
2022-12-23T06:22:33.819Z,97802.31
2022-12-23T06:25:05.940Z,97799.02
2022-12-23T06:27:37.796Z,97810.23
2022-12-23T06:30:11.403Z,97814.63
2022-12-23T06:32:41.533Z,97815.23
2022-12-23T06:35:13.614Z,97820.13
2022-12-23T06:37:45.768Z,97816.68
2022-12-23T06:40:18.439Z,97814.84
2022-12-23T06:42:50.402Z,97817.48
2022-12-23T06:45:22.725Z,97816.95
2022-12-23T06:47:54.509Z,97818.19
2022-12-23T06:50:26.267Z,97822.98
2022-12-23T06:52:58.282Z,97821.80
2022-12-23T06:55:30.110Z,97818.40
2022-12-23T06:58:01.871Z,97819.39
2022-12-23T07:00:34.702Z,97815.50
2022-12-23T07:03:06.774Z,97821.75
2022-12-23T07:05:38.546Z,97822.45
2022-12-23T07:08:10.402Z,97817.95
2022-12-23T07:10:42.186Z,97819.35
2022-12-23T07:13:14.135Z,97824.30
2022-12-23T07:15:45.951Z,97824.14
2022-12-23T07:18:17.766Z,97825.37
2022-12-23T07:20:49.532Z,97823.04
2022-12-23T07:23:21.289Z,97821.58
2022-12-23T07:25:53.303Z,97822.86
2022-12-23T07:28:25.403Z,97827.31
2022-12-23T07:30:57.120Z,97827.86
2022-12-23T07:33:29.428Z,97830.44
2022-12-23T07:36:01.991Z,97830.98
2022-12-23T07:38:33.879Z,97837.95
2022-12-23T07:41:05.894Z,97834.61
2022-12-23T07:43:37.655Z,97832.77
2022-12-23T07:46:10.758Z,97830.49
2022-12-23T07:48:43.844Z,97829.02
2022-12-23T07:51:15.615Z,97834.74
2022-12-23T07:53:51.237Z,97833.27
2022-12-23T07:56:23.273Z,97832.23
2022-12-23T07:58:55.485Z,97832.95
2022-12-23T08:01:27.351Z,97829.46
2022-12-23T08:03:59.457Z,97829.05
2022-12-23T08:06:32.305Z,97824.16
2022-12-23T08:09:06.530Z,97818.80
2022-12-23T08:11:38.307Z,97815.11
2022-12-23T08:14:10.397Z,97810.52
2022-12-23T08:16:44.141Z,97809.70
2022-12-23T08:19:16.268Z,97806.60
2022-12-23T08:21:48.064Z,97809.01
2022-12-23T08:24:19.780Z,97806.98
2022-12-23T08:26:51.438Z,97802.98
2022-12-23T08:29:23.280Z,97800.55
2022-12-23T08:31:56.140Z,97797.77
2022-12-23T08:34:28.017Z,97800.86
2022-12-23T08:36:59.765Z,97803.58
2022-12-23T08:39:31.837Z,97795.59
2022-12-23T08:42:03.674Z,97793.64
2022-12-23T08:44:35.568Z,97790.36
2022-12-23T08:47:07.591Z,97787.46
2022-12-23T08:49:39.608Z,97793.55
2022-12-23T08:52:11.503Z,97792.88
2022-12-23T08:54:43.333Z,97791.32
2022-12-23T08:57:15.010Z,97783.61
2022-12-23T08:59:47.620Z,97776.01
2022-12-23T09:02:19.608Z,97775.67
2022-12-23T09:04:51.463Z,97773.15
2022-12-23T09:07:23.274Z,97771.17
2022-12-23T09:09:55.094Z,97767.59
2022-12-23T09:12:26.847Z,97761.23
2022-12-23T09:14:58.639Z,97758.25
2022-12-23T09:17:30.422Z,97761.50
2022-12-23T09:20:02.262Z,97756.45
2022-12-23T09:22:34.933Z,97752.36
2022-12-23T09:25:07.801Z,97747.42
2022-12-23T09:27:39.670Z,97746.75
2022-12-23T09:30:14.032Z,97743.10
2022-12-23T09:32:45.860Z,97739.84
2022-12-23T09:35:19.627Z,97737.30
2022-12-23T09:37:51.520Z,97734.65
2022-12-23T09:40:24.264Z,97732.09
2022-12-23T09:43:10.256Z,97732.48
2022-12-23T09:46:03.413Z,97725.81
2022-12-23T09:48:45.474Z,97724.70
2022-12-23T09:51:24.416Z,97716.76
2022-12-23T09:54:02.766Z,97716.13
2022-12-23T09:56:44.492Z,97714.58
2022-12-23T09:59:30.159Z,97712.16
2022-12-23T10:02:07.396Z,97706.56
2022-12-23T10:04:46.608Z,97700.60
2022-12-23T10:07:29.849Z,97693.91
2022-12-23T10:10:08.775Z,97694.09
2022-12-23T10:12:43.623Z,97689.41
2022-12-23T10:15:23.488Z,97681.71
2022-12-23T10:17:57.315Z,97679.96
2022-12-23T10:20:39.260Z,97685.14
2022-12-23T10:23:17.886Z,97695.69
2022-12-23T10:25:53.223Z,97694.31
2022-12-23T10:28:29.911Z,97697.76
2022-12-23T10:31:39.842Z,97697.69
2022-12-23T10:34:23.301Z,97698.55
2022-12-23T10:37:03.805Z,97696.33
2022-12-23T10:39:45.406Z,97696.86
2022-12-23T10:42:28.252Z,97694.82
2022-12-23T10:45:29.166Z,97695.27
2022-12-23T10:48:16.259Z,97690.82
2022-12-23T10:50:59.737Z,97686.45
2022-12-23T10:53:40.082Z,97687.36
2022-12-23T10:56:14.262Z,97688.30
2022-12-23T10:58:50.650Z,97682.27
2022-12-23T11:01:27.173Z,97685.20
2022-12-23T11:04:08.562Z,97679.73
2022-12-23T11:06:44.735Z,97679.70
2022-12-23T11:09:21.718Z,97676.88
2022-12-23T11:11:59.803Z,97677.29
2022-12-23T11:14:38.242Z,97683.95
2022-12-23T11:17:24.492Z,97680.05
2022-12-23T11:20:13.456Z,97680.71
2022-12-23T11:22:52.504Z,97681.95
2022-12-23T11:25:34.438Z,97688.36
2022-12-23T11:28:14.289Z,97686.73
2022-12-23T11:30:56.732Z,97687.58
2022-12-23T11:33:32.463Z,97693.39
2022-12-23T11:36:08.425Z,97690.52
2022-12-23T11:38:52.290Z,97688.49
2022-12-23T11:41:24.552Z,97686.47
2022-12-23T11:44:00.449Z,97693.83
2022-12-23T11:46:35.245Z,97698.31
2022-12-23T11:49:22.046Z,97693.86
2022-12-23T11:52:12.107Z,97693.52
2022-12-23T11:54:54.534Z,97686.66
2022-12-23T11:57:37.998Z,97686.38
2022-12-23T12:00:22.244Z,97688.84
2022-12-23T12:02:56.621Z,97686.21
2022-12-23T12:05:35.012Z,97680.67
2022-12-23T12:08:11.486Z,97682.11
2022-12-23T12:10:44.000Z,97685.96
2022-12-23T12:13:29.810Z,97687.36
2022-12-23T12:16:14.036Z,97687.93
2022-12-23T12:18:55.407Z,97687.45
2022-12-23T12:21:30.392Z,97687.23
2022-12-23T12:24:19.254Z,97687.73
2022-12-23T12:26:55.366Z,97687.67
2022-12-23T12:29:33.067Z,97696.04
2022-12-23T12:32:12.860Z,97691.79
2022-12-23T12:34:54.896Z,97688.98
2022-12-23T12:37:37.641Z,97684.59
2022-12-23T12:40:25.270Z,97685.84
2022-12-23T12:43:01.564Z,97685.77
2022-12-23T12:45:43.182Z,97689.70
2022-12-23T12:48:31.694Z,97693.14
2022-12-23T12:51:10.295Z,97692.70
2022-12-23T12:53:58.228Z,97692.63
2022-12-23T12:56:36.355Z,97693.73
2022-12-23T12:59:11.672Z,97694.06
2022-12-23T13:01:57.644Z,97693.73
2022-12-23T13:04:55.132Z,97700.86
2022-12-23T13:07:39.303Z,97702.84
2022-12-23T13:10:17.231Z,97705.89
2022-12-23T13:12:57.793Z,97707.77
2022-12-23T13:15:35.380Z,97711.23
2022-12-23T13:18:24.628Z,97710.92
2022-12-23T13:21:04.124Z,97717.04
2022-12-23T13:23:44.853Z,97722.77
2022-12-23T13:26:27.417Z,97718.14
2022-12-23T13:29:17.950Z,97723.34
2022-12-23T13:31:59.049Z,97723.79
2022-12-23T13:34:45.695Z,97724.02
2022-12-23T13:37:28.905Z,97729.32
2022-12-23T13:40:12.399Z,97731.05
2022-12-23T13:42:50.119Z,97732.95
2022-12-23T13:45:24.959Z,97733.58
2022-12-23T13:48:10.716Z,97734.70
2022-12-23T13:50:51.855Z,97741.39
2022-12-23T13:53:34.084Z,97735.22
2022-12-23T13:56:28.214Z,97739.96
2022-12-23T13:59:00.645Z,97743.48
2022-12-23T14:01:47.621Z,97744.10
2022-12-23T14:04:37.097Z,97744.30
2022-12-23T14:07:20.907Z,97741.13
2022-12-23T14:09:55.612Z,97742.76
2022-12-23T14:12:30.696Z,97740.18
2022-12-23T14:15:36.836Z,97740.66
2022-12-23T14:18:19.038Z,97743.36
2022-12-23T14:20:56.474Z,97743.42
2022-12-23T14:23:50.384Z,97748.09
2022-12-23T14:26:35.775Z,97749.39
2022-12-23T14:29:35.501Z,97753.80
2022-12-23T14:32:22.393Z,97752.31
2022-12-23T14:35:24.375Z,97753.96
2022-12-23T14:38:25.390Z,97745.51
2022-12-23T14:41:37.825Z,97750.14
2022-12-23T14:44:42.502Z,97753.48
2022-12-23T14:47:35.239Z,97752.52
2022-12-23T14:50:37.854Z,97745.23
2022-12-23T14:53:25.004Z,97749.31
2022-12-23T14:56:22.844Z,97755.05
2022-12-23T14:59:17.352Z,97752.03
2022-12-23T15:01:53.869Z,97747.46
2022-12-23T15:04:29.725Z,97746.15
2022-12-23T15:07:07.967Z,97741.48
2022-12-23T15:10:00.675Z,97750.01
2022-12-23T15:12:37.113Z,97759.20
2022-12-23T15:15:16.109Z,97759.54
2022-12-23T15:17:50.417Z,97760.55
2022-12-23T15:20:24.968Z,97758.99
2022-12-23T15:23:03.211Z,97759.70
2022-12-23T15:25:40.828Z,97758.88
2022-12-23T15:28:20.190Z,97762.60
2022-12-23T15:30:55.683Z,97764.73
2022-12-23T15:36:32.120Z,97766.79
2022-12-23T15:39:27.897Z,97766.14
2022-12-23T15:41:59.682Z,97763.92
2022-12-23T15:44:38.760Z,97763.14
2022-12-23T15:47:30.126Z,97765.08
2022-12-23T15:50:03.509Z,97761.88
2022-12-23T15:52:35.711Z,97757.98
2022-12-23T15:55:21.324Z,97756.39
2022-12-23T15:57:54.039Z,97753.27
2022-12-23T16:00:28.444Z,97751.59
2022-12-23T16:03:02.923Z,97754.81
2022-12-23T16:05:38.843Z,97759.16
2022-12-23T16:08:29.063Z,97757.92
2022-12-23T16:11:07.856Z,97764.19
2022-12-23T16:13:46.731Z,97774.13
2022-12-23T16:16:31.189Z,97773.36
2022-12-23T16:19:03.406Z,97766.52
2022-12-23T16:21:38.000Z,97759.71
2022-12-23T16:24:11.469Z,97753.83
2022-12-23T16:26:44.426Z,97752.35
2022-12-23T16:29:17.667Z,97744.93
2022-12-23T16:31:55.818Z,97745.27
2022-12-23T16:34:33.325Z,97747.30
2022-12-23T16:37:05.088Z,97749.03
2022-12-23T16:39:36.873Z,97751.30
2022-12-23T16:42:10.820Z,97751.79
2022-12-23T16:44:42.799Z,97745.23
2022-12-23T16:47:20.082Z,97741.27
2022-12-23T16:49:51.946Z,97742.83
2022-12-23T16:52:25.097Z,97737.06
2022-12-23T16:54:56.926Z,97736.57
2022-12-23T16:57:28.746Z,97736.33
2022-12-23T17:00:00.626Z,97740.16
2022-12-23T17:02:34.568Z,97740.70
2022-12-23T17:05:07.846Z,97738.74
2022-12-23T17:07:45.024Z,97734.05
2022-12-23T17:10:19.165Z,97729.40
2022-12-23T17:12:52.197Z,97728.83
2022-12-23T17:15:26.183Z,97731.22
2022-12-23T17:17:58.179Z,97728.55
2022-12-23T17:20:30.145Z,97730.77
2022-12-23T17:23:02.477Z,97734.21
2022-12-23T17:25:34.259Z,97742.44
2022-12-23T17:28:12.812Z,97742.34
2022-12-23T17:30:44.639Z,97745.27
2022-12-23T17:33:20.279Z,97747.98
2022-12-23T17:35:52.132Z,97749.83
2022-12-23T17:38:24.726Z,97755.27
2022-12-23T17:40:59.378Z,97759.30
2022-12-23T17:43:31.255Z,97766.44
2022-12-23T17:46:03.157Z,97769.64
2022-12-23T17:48:35.327Z,97772.77
2022-12-23T17:51:09.196Z,97768.58
2022-12-23T17:53:41.049Z,97774.04
2022-12-23T17:56:19.907Z,97770.56
2022-12-23T17:58:54.762Z,97773.58
2022-12-23T18:01:29.677Z,97772.29
2022-12-23T18:04:02.447Z,97773.28
2022-12-23T18:06:34.588Z,97766.66
2022-12-23T18:09:07.135Z,97762.86
2022-12-23T18:11:42.971Z,97764.54
2022-12-23T18:14:20.822Z,97767.31
2022-12-23T18:16:53.658Z,97768.14
2022-12-23T18:19:25.667Z,97769.48
2022-12-23T18:21:57.543Z,97770.98
2022-12-23T18:24:29.477Z,97772.57
2022-12-23T18:27:01.849Z,97774.59
2022-12-23T18:29:33.872Z,97773.48
2022-12-23T18:32:06.987Z,97774.79
2022-12-23T18:34:38.917Z,97775.55
2022-12-23T18:37:12.577Z,97775.34
2022-12-23T18:39:43.025Z,97775.04
2022-12-23T18:42:16.720Z,97774.08
2022-12-23T18:44:48.204Z,97775.42
2022-12-23T18:47:20.070Z,97774.14
2022-12-23T18:49:51.795Z,97773.74
2022-12-23T18:52:24.116Z,97778.39
2022-12-23T18:54:56.275Z,97776.17
2022-12-23T18:57:27.976Z,97770.48
2022-12-23T18:59:59.744Z,97769.98
2022-12-23T19:02:31.498Z,97772.11
2022-12-23T19:05:03.222Z,97767.66
2022-12-23T19:07:35.245Z,97772.23
2022-12-23T19:10:10.303Z,97771.17
2022-12-23T19:12:42.269Z,97772.30
2022-12-23T19:15:15.070Z,97774.83
2022-12-23T19:17:46.847Z,97772.09
2022-12-23T19:20:21.309Z,97773.13
2022-12-23T19:22:53.048Z,97770.12
2022-12-23T19:25:24.824Z,97767.80
2022-12-23T19:27:56.988Z,97771.23
2022-12-23T19:30:28.865Z,97770.48
2022-12-23T19:33:00.746Z,97772.16
2022-12-23T19:35:32.623Z,97768.64
2022-12-23T19:38:04.365Z,97771.98
2022-12-23T19:40:36.165Z,97772.20
2022-12-23T19:43:08.021Z,97769.52
2022-12-23T19:45:39.955Z,97769.23
2022-12-23T19:48:11.855Z,97768.70
2022-12-23T19:50:43.577Z,97760.38
2022-12-23T19:53:15.725Z,97763.19
2022-12-23T19:56:07.416Z,97770.89
2022-12-23T19:58:43.110Z,97774.28
2022-12-23T20:01:19.318Z,97778.67
2022-12-23T20:03:52.606Z,97782.29
2022-12-23T20:06:24.235Z,97776.90
2022-12-23T20:09:00.352Z,97773.77
2022-12-23T20:11:37.489Z,97764.50
2022-12-23T20:14:11.393Z,97757.46
2022-12-23T20:16:44.369Z,97746.16
2022-12-23T20:19:16.492Z,97745.29
2022-12-23T20:21:48.334Z,97735.30
2022-12-23T20:24:20.290Z,97724.16
2022-12-23T20:26:52.229Z,97727.42
2022-12-23T20:29:24.027Z,97727.53
2022-12-23T20:31:55.779Z,97726.86
2022-12-23T20:34:27.765Z,97719.95
2022-12-23T20:37:02.843Z,97711.23
2022-12-23T20:39:34.608Z,97712.97
2022-12-23T20:42:06.752Z,97707.86
2022-12-23T20:44:38.538Z,97708.89
2022-12-23T20:47:10.384Z,97702.45
2022-12-23T20:49:42.193Z,97702.66
2022-12-23T20:52:14.242Z,97704.16
2022-12-23T20:54:46.013Z,97707.05
2022-12-23T20:57:17.824Z,97706.80
2022-12-23T20:59:49.663Z,97709.98
2022-12-23T21:02:21.679Z,97704.13
2022-12-23T21:04:53.573Z,97702.40
2022-12-23T21:07:26.296Z,97703.84
2022-12-23T21:09:58.121Z,97699.50
2022-12-23T21:12:29.907Z,97702.55
2022-12-23T21:15:01.810Z,97698.92
2022-12-23T21:17:33.799Z,97701.39
2022-12-23T21:20:07.910Z,97704.73
2022-12-23T21:22:39.878Z,97707.69
2022-12-23T21:25:13.021Z,97704.11
2022-12-23T21:27:44.833Z,97703.89
2022-12-23T21:30:17.173Z,97697.34
2022-12-23T21:32:49.082Z,97692.67
2022-12-23T21:35:21.023Z,97686.08
2022-12-23T21:37:52.831Z,97686.29
2022-12-23T21:40:24.561Z,97694.30
2022-12-23T21:42:56.418Z,97697.20
2022-12-23T21:45:28.240Z,97698.27
2022-12-23T21:47:59.985Z,97700.29
2022-12-23T21:50:31.779Z,97696.74
2022-12-23T21:53:04.545Z,97696.39
2022-12-23T21:55:36.802Z,97701.58
2022-12-23T21:58:09.660Z,97701.09
2022-12-23T22:00:41.722Z,97698.70
2022-12-23T22:03:13.463Z,97698.73
2022-12-23T22:05:45.266Z,97696.77
2022-12-23T22:08:16.968Z,97697.50
2022-12-23T22:10:48.789Z,97697.21
2022-12-23T22:13:20.489Z,97696.96
2022-12-23T22:15:52.253Z,97689.58
2022-12-23T22:18:24.367Z,97685.52
2022-12-23T22:20:57.213Z,97681.72
2022-12-23T22:23:29.021Z,97681.68
2022-12-23T22:26:00.893Z,97682.16
2022-12-23T22:28:35.034Z,97672.88
2022-12-23T22:31:09.759Z,97676.81
2022-12-23T22:33:41.672Z,97674.02
2022-12-23T22:36:15.746Z,97676.09
2022-12-23T22:38:54.514Z,97673.61
2022-12-23T22:41:28.516Z,97675.46
2022-12-23T22:44:01.101Z,97675.88
2022-12-23T22:46:33.363Z,97673.51
2022-12-23T22:49:05.213Z,97669.02
2022-12-23T22:51:37.023Z,97672.31
2022-12-23T22:54:10.050Z,97669.57
2022-12-23T22:56:41.903Z,97663.88
2022-12-23T22:59:22.355Z,97659.48
2022-12-23T23:01:55.448Z,97664.27
2022-12-23T23:04:27.280Z,97662.10
2022-12-23T23:06:59.357Z,97663.02
2022-12-23T23:09:31.070Z,97663.08
2022-12-23T23:12:02.957Z,97664.20
2022-12-23T23:14:56.402Z,97663.45
2022-12-23T23:17:29.386Z,97668.08
2022-12-23T23:20:01.099Z,97667.42
2022-12-23T23:22:32.996Z,97654.86
2022-12-23T23:25:05.083Z,97651.95
2022-12-23T23:27:36.983Z,97657.08
2022-12-23T23:30:10.879Z,97652.54
2022-12-23T23:32:42.847Z,97643.85
2022-12-23T23:35:14.771Z,97645.94
2022-12-23T23:37:46.578Z,97643.65
2022-12-23T23:40:18.661Z,97634.12
2022-12-23T23:42:50.580Z,97636.11
2022-12-23T23:45:22.406Z,97633.70
2022-12-23T23:47:54.468Z,97626.45
2022-12-23T23:50:26.278Z,97624.42
2022-12-23T23:52:58.139Z,97617.52
2022-12-23T23:55:30.105Z,97617.77
2022-12-23T23:58:01.843Z,97615.30
